Time;durP1;ratioP1;P1;durP2;ratioP2;P2;SDS_P1;SDS_P2;PMS_P1;PMS_P2;Temp;Humidity;BMP_temperature;BMP_pressure;BME280_temperature;BME280_humidity;BME280_pressure;Samples;Min_cycle;Max_cycle;Signal;HPM_P1;HPM_P2
2022/07/29 00:01:09;;;;;;;4.57;1.17;;;17.70;54.50;;;;;;5030829;28;20049;-67
2022/07/29 00:03:36;;;;;;;5.40;1.20;;;17.60;54.80;;;;;;5030032;28;20132;-67
2022/07/29 00:06:03;;;;;;;5.60;1.10;;;17.50;55.20;;;;;;5030485;28;20060;-69
2022/07/29 00:08:30;;;;;;;6.25;1.30;;;17.40;55.40;;;;;;5045613;28;20053;-68
2022/07/29 00:10:55;;;;;;;2.90;1.10;;;17.40;55.30;;;;;;5035755;28;20104;-71
2022/07/29 00:13:21;;;;;;;4.68;1.20;;;17.40;55.40;;;;;;5013606;28;20581;-71
2022/07/29 00:15:47;;;;;;;4.85;1.30;;;17.40;55.50;;;;;;5047246;28;20041;-71
2022/07/29 00:18:12;;;;;;;4.72;1.30;;;17.50;55.30;;;;;;5033514;28;20088;-71
2022/07/29 00:20:38;;;;;;;3.28;1.15;;;17.50;55.10;;;;;;5023012;28;20041;-71
2022/07/29 00:23:05;;;;;;;5.95;1.55;;;17.50;55.10;;;;;;5066176;28;20041;-71
2022/07/29 00:25:32;;;;;;;3.17;1.10;;;17.50;55.60;;;;;;5045518;28;20056;-71
2022/07/29 00:27:58;;;;;;;5.03;1.30;;;17.50;55.40;;;;;;5041830;28;20116;-71
2022/07/29 00:30:27;;;;;;;5.97;1.55;;;17.50;55.20;;;;;;5046099;28;20042;-71
2022/07/29 00:32:54;;;;;;;5.03;1.20;;;17.50;55.30;;;;;;5019032;28;20076;-71
2022/07/29 00:38:07;;;;;;;6.93;1.55;;;17.40;55.30;;;;;;5051959;28;20041;-71
2022/07/29 00:40:34;;;;;;;6.47;1.08;;;17.30;55.70;;;;;;5046942;28;20506;-71
2022/07/29 00:43:01;;;;;;;6.03;1.80;;;17.30;55.60;;;;;;5049393;28;20041;-71
2022/07/29 00:45:29;;;;;;;4.40;1.13;;;17.30;56.00;;;;;;5049527;28;20493;-71
2022/07/29 00:47:55;;;;;;;4.70;1.30;;;17.20;56.30;;;;;;5053788;28;20045;-70
2022/07/29 00:50:23;;;;;;;3.55;1.20;;;17.20;56.70;;;;;;5037623;28;20106;-71
2022/07/29 00:52:49;;;;;;;4.03;1.20;;;17.10;57.40;;;;;;5048043;28;20479;-71
2022/07/29 00:55:17;;;;;;;3.25;1.10;;;17.10;57.10;;;;;;4996811;28;20049;-70
2022/07/29 00:57:44;;;;;;;4.47;1.20;;;17.10;57.10;;;;;;5030068;28;20057;-70
2022/07/29 01:00:13;;;;;;;5.30;1.25;;;17.20;57.10;;;;;;5012792;28;20360;-70
2022/07/29 01:02:41;;;;;;;5.00;1.25;;;17.30;57.00;;;;;;5030210;28;20130;-70
2022/07/29 01:05:08;;;;;;;3.88;1.08;;;17.30;56.90;;;;;;5029040;28;20049;-70
2022/07/29 01:07:35;;;;;;;3.60;1.30;;;17.30;57.30;;;;;;5024008;28;20049;-71
2022/07/29 01:10:04;;;;;;;5.10;1.30;;;17.20;57.60;;;;;;5044940;28;20068;-70
2022/07/29 01:12:33;;;;;;;;;;;17.20;57.70;;;;;;5047532;28;20565;-70
2022/07/29 01:15:01;;;;;;;3.30;1.70;;;17.20;57.60;;;;;;5028939;28;19945;-70
2022/07/29 01:17:29;;;;;;;4.68;1.42;;;17.20;57.60;;;;;;5012324;28;20054;-70
2022/07/29 01:20:36;;;;;;;5.95;1.40;;;17.20;57.60;;;;;;5028400;28;20049;-70
2022/07/29 01:23:40;;;;;;;4.93;1.48;;;17.20;57.80;;;;;;5014720;28;20045;-70
2022/07/29 01:26:50;;;;;;;3.20;1.30;;;17.20;57.70;;;;;;5033361;28;20068;-69
2022/07/29 01:29:43;;;;;;;8.50;1.42;;;17.20;57.40;;;;;;5027227;28;20038;-69
2022/07/29 01:32:12;;;;;;;4.30;1.20;;;17.20;57.40;;;;;;5027820;28;20044;-70
2022/07/29 01:34:49;;;;;;;;;;;17.30;57.30;;;;;;5058891;28;20048;-70
2022/07/29 01:37:31;;;;;;;3.03;1.05;;;17.20;57.10;;;;;;5012011;28;20011;-70
2022/07/29 01:39:58;;;;;;;4.78;1.25;;;17.20;57.20;;;;;;5036764;28;20053;-69
2022/07/29 01:42:39;;;;;;;4.25;1.23;;;17.20;57.50;;;;;;5035701;28;20698;-69
2022/07/29 01:45:29;;;;;;;3.95;1.40;;;17.00;57.80;;;;;;5048651;28;20466;-70
2022/07/29 01:48:45;;;;;;;6.30;1.63;;;17.10;57.60;;;;;;5041633;28;20124;-70
2022/07/29 01:51:24;;;;;;;5.30;1.30;;;17.10;57.50;;;;;;5038051;28;20491;-70
2022/07/29 01:54:16;;;;;;;4.32;1.20;;;17.10;57.30;;;;;;4994519;28;20037;-71
2022/07/29 01:56:42;;;;;;;5.03;1.45;;;17.10;57.60;;;;;;5043988;28;20045;-70
2022/07/29 01:59:09;;;;;;;3.08;1.17;;;17.00;58.00;;;;;;4974212;28;20463;-70
2022/07/29 02:01:35;;;;;;;3.63;1.20;;;17.10;57.90;;;;;;4993830;28;20132;-70
2022/07/29 02:04:06;;;;;;;4.40;1.23;;;17.00;57.60;;;;;;5008257;28;20467;-70
2022/07/29 02:06:33;;;;;;;4.38;1.10;;;17.00;57.60;;;;;;4994814;28;20052;-70
2022/07/29 02:09:00;;;;;;;3.85;1.35;;;17.10;57.40;;;;;;5010563;28;20754;-70
2022/07/29 02:11:28;;;;;;;7.35;1.42;;;17.10;57.50;;;;;;4993974;28;20463;-70
2022/07/29 02:13:55;;;;;;;2.90;1.10;;;17.10;57.10;;;;;;5008921;28;20054;-69
2022/07/29 02:16:22;;;;;;;5.15;1.23;;;17.10;57.30;;;;;;5010195;28;20283;-70
2022/07/29 02:18:53;;;;;;;4.32;1.40;;;17.10;57.00;;;;;;5015301;28;20060;-70
2022/07/29 02:21:23;;;;;;;3.22;1.33;;;17.00;56.90;;;;;;5015657;28;20098;-71
2022/07/29 02:23:48;;;;;;;4.65;1.40;;;17.10;56.90;;;;;;5033932;28;20064;-71
2022/07/29 02:26:16;;;;;;;4.82;1.38;;;17.10;57.00;;;;;;4995398;28;20138;-69
2022/07/29 02:28:43;;;;;;;3.23;1.10;;;17.10;56.90;;;;;;5027976;28;20056;-70
2022/07/29 02:31:10;;;;;;;4.72;1.20;;;17.10;57.10;;;;;;5033415;28;20045;-70
2022/07/29 02:33:37;;;;;;;7.10;1.77;;;17.10;56.90;;;;;;5034316;28;20802;-69
2022/07/29 02:36:04;;;;;;;3.97;1.20;;;17.00;56.90;;;;;;5034383;28;20178;-70
2022/07/29 02:38:50;;;;;;;10.25;1.30;;;17.00;57.60;;;;;;5035841;28;20052;-69
2022/07/29 02:41:37;;;;;;;4.15;1.08;;;17.00;57.10;;;;;;5038921;28;20040;-70
2022/07/29 02:44:12;;;;;;;2.95;1.15;;;17.00;57.10;;;;;;5051215;28;20075;-70
2022/07/29 02:46:46;;;;;;;4.55;1.75;;;16.90;57.30;;;;;;5051632;28;20052;-70
2022/07/29 02:49:37;;;;;;;4.13;1.48;;;17.00;57.30;;;;;;5031926;28;20045;-69
2022/07/29 02:52:31;;;;;;;5.57;1.42;;;16.90;57.40;;;;;;5015056;28;20076;-70
2022/07/29 02:55:32;;;;;;;4.47;1.50;;;16.90;57.50;;;;;;5049903;28;20494;-70
2022/07/29 02:58:32;;;;;;;5.78;1.40;;;16.90;57.50;;;;;;5034416;28;20053;-69
2022/07/29 03:01:03;;;;;;;4.18;1.35;;;16.90;57.40;;;;;;5051633;28;20152;-70
2022/07/29 03:03:35;;;;;;;4.55;1.40;;;17.00;57.40;;;;;;5066480;28;20493;-70
2022/07/29 03:06:02;;;;;;;3.70;1.33;;;16.90;57.30;;;;;;5030384;28;20057;-69
2022/07/29 03:08:29;;;;;;;5.55;1.92;;;16.90;57.50;;;;;;5044874;28;20048;-70
2022/07/29 03:10:56;;;;;;;5.03;1.50;;;16.90;57.60;;;;;;5034029;28;20045;-69
2022/07/29 03:13:23;;;;;;;3.63;1.45;;;16.90;57.60;;;;;;4998589;28;20087;-69
2022/07/29 03:15:50;;;;;;;3.30;1.15;;;16.90;57.80;;;;;;5033703;28;20053;-69
2022/07/29 03:18:17;;;;;;;4.32;1.70;;;16.80;58.10;;;;;;4998854;28;20498;-70
2022/07/29 03:20:44;;;;;;;4.57;1.52;;;16.90;57.90;;;;;;5014722;28;20054;-69
2022/07/29 03:23:11;;;;;;;4.03;1.33;;;16.90;57.80;;;;;;5031696;28;20045;-69
2022/07/29 03:25:38;;;;;;;5.40;1.67;;;16.90;58.00;;;;;;5011508;28;20177;-70
2022/07/29 03:28:05;;;;;;;6.78;1.88;;;16.90;58.00;;;;;;5034318;28;20467;-70
2022/07/29 03:30:32;;;;;;;8.18;1.90;;;16.90;58.00;;;;;;5033921;28;20704;-70
2022/07/29 03:33:00;;;;;;;5.22;1.90;;;16.90;58.10;;;;;;5034285;28;20415;-69
2022/07/29 03:35:28;;;;;;;5.07;1.70;;;16.90;57.90;;;;;;5034157;28;20040;-69
2022/07/29 03:37:54;;;;;;;5.25;1.85;;;16.80;58.10;;;;;;5034360;28;20048;-69
2022/07/29 03:40:28;;;;;;;6.20;1.60;;;16.90;58.20;;;;;;5013535;28;20154;-69
2022/07/29 03:42:55;;;;;;;4.50;1.50;;;16.90;58.20;;;;;;5030016;28;20045;-70
2022/07/29 03:45:22;;;;;;;4.50;1.50;;;16.90;58.20;;;;;;5030711;28;20487;-71
2022/07/29 03:47:51;;;;;;;6.78;1.60;;;16.90;58.20;;;;;;4998710;28;20758;-70
2022/07/29 03:50:19;;;;;;;8.38;2.05;;;16.80;58.20;;;;;;5014247;28;20132;-70
2022/07/29 03:52:46;;;;;;;6.22;1.50;;;16.80;58.50;;;;;;5014165;28;20108;-69
2022/07/29 03:55:13;;;;;;;6.88;1.75;;;16.80;58.40;;;;;;5014365;28;20069;-70
2022/07/29 03:57:41;;;;;;;4.57;1.40;;;16.70;58.50;;;;;;5014301;28;20106;-71
2022/07/29 04:00:08;;;;;;;9.80;1.63;;;16.70;58.50;;;;;;5044428;28;20128;-69
2022/07/29 04:02:36;;;;;;;7.00;2.00;;;16.80;58.60;;;;;;5021554;28;20111;-70
2022/07/29 04:05:03;;;;;;;8.57;2.05;;;16.80;58.30;;;;;;5014192;28;20068;-68
2022/07/29 04:07:30;;;;;;;5.23;1.60;;;16.90;58.50;;;;;;5030654;28;20467;-69
2022/07/29 04:09:57;;;;;;;8.02;2.10;;;16.90;58.20;;;;;;5025121;28;20052;-70
2022/07/29 04:12:24;;;;;;;7.95;1.67;;;16.90;58.10;;;;;;5050446;28;20091;-70
2022/07/29 04:14:51;;;;;;;5.32;1.60;;;16.90;58.30;;;;;;5049207;28;20045;-70
2022/07/29 04:17:18;;;;;;;8.20;1.67;;;16.90;58.40;;;;;;4997431;28;20128;-70
2022/07/29 04:19:45;;;;;;;3.97;1.52;;;16.80;58.70;;;;;;4996809;28;20125;-69
2022/07/29 04:22:11;;;;;;;5.88;1.70;;;16.80;58.90;;;;;;5036692;28;20659;-70
2022/07/29 04:24:38;;;;;;;8.95;1.77;;;16.80;58.80;;;;;;5033072;28;20111;-69
2022/07/29 04:27:05;;;;;;;5.88;1.80;;;16.80;58.70;;;;;;5012701;28;20053;-69
2022/07/29 04:29:33;;;;;;;10.48;1.77;;;16.90;58.80;;;;;;5023060;28;20064;-71
2022/07/29 04:31:59;;;;;;;8.52;2.08;;;16.90;59.10;;;;;;5065943;28;20098;-71
2022/07/29 04:34:26;;;;;;;5.90;1.77;;;16.90;59.50;;;;;;5032743;28;20049;-70
2022/07/29 04:36:53;;;;;;;6.22;1.95;;;16.90;60.10;;;;;;5043935;28;20045;-69
2022/07/29 04:39:20;;;;;;;6.40;1.63;;;16.90;59.50;;;;;;5038564;28;20375;-69
2022/07/29 04:41:47;;;;;;;9.55;1.95;;;17.00;59.60;;;;;;5044910;28;20045;-70
2022/07/29 04:44:14;;;;;;;7.18;1.92;;;17.00;60.00;;;;;;5029549;28;20053;-70
2022/07/29 04:46:41;;;;;;;5.28;1.90;;;16.90;60.10;;;;;;5028501;28;20049;-71
2022/07/29 04:49:08;;;;;;;9.52;1.83;;;16.90;60.00;;;;;;5013617;28;20049;-70
2022/07/29 04:51:35;;;;;;;5.03;1.83;;;17.00;59.90;;;;;;5025945;28;20379;-70
2022/07/29 04:54:02;;;;;;;4.20;1.67;;;17.10;59.70;;;;;;5032558;28;20098;-70
2022/07/29 04:56:29;;;;;;;6.35;2.13;;;17.00;60.10;;;;;;5043459;28;20045;-70
2022/07/29 04:58:56;;;;;;;7.15;2.20;;;17.00;60.10;;;;;;5035103;28;20434;-70
2022/07/29 05:01:23;;;;;;;4.38;1.98;;;17.10;59.70;;;;;;5047141;28;20092;-70
2022/07/29 05:03:49;;;;;;;5.18;1.88;;;17.10;59.80;;;;;;5012530;28;20053;-69
2022/07/29 05:06:16;;;;;;;6.93;1.90;;;17.10;60.00;;;;;;5029274;28;20049;-70
2022/07/29 05:08:43;;;;;;;4.38;1.80;;;17.10;59.80;;;;;;5031427;28;20424;-70
2022/07/29 05:11:10;;;;;;;3.92;1.75;;;17.10;60.30;;;;;;5065876;28;20044;-69
2022/07/29 05:13:37;;;;;;;6.32;2.00;;;16.90;60.80;;;;;;5065692;28;20052;-70
2022/07/29 05:16:05;;;;;;;6.53;1.95;;;16.90;60.50;;;;;;5053731;28;20053;-69
2022/07/29 05:18:31;;;;;;;10.38;2.75;;;16.90;60.60;;;;;;5029888;28;20641;-70
2022/07/29 05:20:58;;;;;;;5.65;1.90;;;17.00;60.60;;;;;;5028872;28;20080;-70
2022/07/29 05:23:24;;;;;;;9.10;2.20;;;17.00;60.70;;;;;;5019134;28;20053;-69
2022/07/29 05:25:51;;;;;;;7.53;2.17;;;17.00;60.60;;;;;;5037379;28;20135;-69
2022/07/29 05:28:19;;;;;;;10.38;2.13;;;17.10;60.50;;;;;;5028121;28;20087;-69
2022/07/29 05:30:46;;;;;;;7.82;2.25;;;17.10;60.60;;;;;;5033410;28;20045;-70
2022/07/29 05:33:13;;;;;;;12.18;2.50;;;17.10;60.60;;;;;;5024303;28;20048;-70
2022/07/29 05:35:41;;;;;;;11.30;2.20;;;17.20;60.60;;;;;;5018387;28;20060;-71
2022/07/29 05:38:07;;;;;;;;;;;17.20;60.40;;;;;;5027983;28;20045;-69
2022/07/29 05:40:34;;;;;;;6.13;1.80;;;17.20;60.30;;;;;;5036508;28;20385;-69
2022/07/29 05:43:00;;;;;;;7.00;2.35;;;17.30;60.30;;;;;;5027667;28;20049;-70
2022/07/29 05:45:27;;;;;;;10.43;2.60;;;17.40;60.10;;;;;;5028428;28;20128;-70
2022/07/29 05:47:54;;;;;;;8.10;2.50;;;17.50;60.10;;;;;;5040041;28;20049;-71
2022/07/29 05:50:22;;;;;;;5.60;2.20;;;17.50;60.40;;;;;;5028822;28;20069;-70
2022/07/29 05:52:49;;;;;;;7.05;2.42;;;17.50;60.30;;;;;;5028955;28;20041;-70
2022/07/29 05:55:15;;;;;;;11.02;2.20;;;17.50;60.20;;;;;;5029276;28;20057;-70
2022/07/29 05:57:44;;;;;;;9.20;2.72;;;17.60;60.20;;;;;;5029268;28;20052;-70
2022/07/29 06:00:11;;;;;;;8.35;2.17;;;17.60;60.30;;;;;;5017169;28;20153;-70
2022/07/29 06:02:39;;;;;;;6.78;2.10;;;17.50;60.40;;;;;;5029101;28;20060;-70
2022/07/29 06:05:07;;;;;;;5.55;1.90;;;17.60;60.10;;;;;;5029282;28;20048;-70
2022/07/29 06:07:34;;;;;;;9.00;2.30;;;17.70;60.00;;;;;;5024966;28;20059;-70
2022/07/29 06:10:00;;;;;;;8.07;2.35;;;17.80;59.90;;;;;;5056525;28;20036;-70
2022/07/29 06:12:28;;;;;;;9.07;2.53;;;17.90;59.80;;;;;;5061884;28;20120;-70
2022/07/29 06:14:53;;;;;;;8.32;2.50;;;17.90;59.70;;;;;;5069703;28;20243;-70
2022/07/29 06:17:20;;;;;;;11.57;2.75;;;17.90;59.90;;;;;;5067506;28;20366;-70
2022/07/29 06:19:47;;;;;;;10.50;2.38;;;18.00;59.80;;;;;;5055078;28;20048;-70
2022/07/29 06:22:17;;;;;;;6.90;2.80;;;18.00;59.60;;;;;;5065902;28;20062;-70
2022/07/29 06:24:44;;;;;;;6.55;2.22;;;18.00;59.90;;;;;;5063165;28;20068;-71
2022/07/29 06:27:12;;;;;;;7.20;2.55;;;18.10;59.90;;;;;;5066669;28;20650;-71
2022/07/29 06:29:39;;;;;;;10.60;2.83;;;18.10;59.80;;;;;;5056371;28;20087;-71
2022/07/29 06:32:06;;;;;;;5.47;2.60;;;18.20;59.70;;;;;;5071586;28;20283;-71
2022/07/29 06:34:32;;;;;;;6.35;2.15;;;18.20;59.70;;;;;;5049318;28;20049;-71
2022/07/29 06:36:57;;;;;;;8.25;2.60;;;18.20;59.50;;;;;;5071277;28;20478;-71
2022/07/29 06:39:24;;;;;;;7.35;2.40;;;18.30;59.40;;;;;;5068434;28;20382;-73
2022/07/29 06:41:51;;;;;;;11.07;2.70;;;18.40;59.30;;;;;;5063737;28;20498;-71
2022/07/29 06:44:20;;;;;;;8.02;2.60;;;18.40;59.10;;;;;;5047722;28;20059;-71
2022/07/29 06:46:48;;;;;;;9.55;2.83;;;18.40;59.00;;;;;;5029655;28;20052;-71
2022/07/29 06:49:16;;;;;;;10.52;2.70;;;18.50;58.80;;;;;;5058991;28;20052;-72
2022/07/29 06:51:43;;;;;;;11.30;2.70;;;18.50;59.00;;;;;;5056797;28;20516;-73
2022/07/29 06:54:10;;;;;;;6.22;2.75;;;18.50;59.10;;;;;;5054759;28;20114;-71
2022/07/29 06:56:38;;;;;;;11.65;2.72;;;18.40;59.40;;;;;;5044234;28;20049;-71
2022/07/29 06:59:05;;;;;;;6.95;2.40;;;18.40;59.60;;;;;;5068264;28;20602;-72
2022/07/29 07:01:32;;;;;;;6.95;2.60;;;18.50;59.40;;;;;;5045057;28;20077;-71
2022/07/29 07:03:59;;;;;;;6.32;2.47;;;18.50;59.30;;;;;;5058332;28;20063;-71
2022/07/29 07:06:26;;;;;;;9.27;2.58;;;18.50;59.20;;;;;;5059718;28;20648;-71
2022/07/29 07:08:53;;;;;;;8.50;3.20;;;18.50;59.00;;;;;;5050611;28;20123;-70
2022/07/29 07:11:20;;;;;;;7.68;2.67;;;18.50;59.40;;;;;;5054732;28;20106;-70
2022/07/29 07:13:47;;;;;;;5.70;2.80;;;18.60;59.40;;;;;;5056161;28;20119;-70
2022/07/29 07:16:14;;;;;;;7.57;2.72;;;18.70;59.20;;;;;;5047124;28;20117;-70
2022/07/29 07:18:41;;;;;;;7.82;2.70;;;18.70;59.10;;;;;;5052996;28;20041;-70
2022/07/29 07:21:08;;;;;;;10.45;2.53;;;18.80;58.90;;;;;;5064513;28;20538;-70
2022/07/29 07:23:35;;;;;;;8.60;2.88;;;18.90;58.60;;;;;;5043093;28;20425;-71
2022/07/29 07:26:02;;;;;;;11.52;3.47;;;18.90;58.60;;;;;;5057731;28;20117;-72
2022/07/29 07:28:30;;;;;;;7.72;3.13;;;19.00;58.40;;;;;;5053188;28;20059;-70
2022/07/29 07:30:57;;;;;;;6.88;2.50;;;19.00;58.10;;;;;;5054681;28;20107;-70
2022/07/29 07:33:24;;;;;;;6.97;2.92;;;19.00;58.00;;;;;;5029452;28;20051;-69
2022/07/29 07:35:51;;;;;;;8.20;3.22;;;19.10;58.20;;;;;;5036933;28;20072;-70
2022/07/29 07:38:18;;;;;;;7.18;2.72;;;19.10;58.30;;;;;;5027532;28;20057;-70
2022/07/29 07:40:46;;;;;;;6.32;2.50;;;19.10;58.20;;;;;;5048486;28;20115;-70
2022/07/29 07:43:13;;;;;;;9.82;3.08;;;19.20;58.10;;;;;;5053417;28;20048;-71
2022/07/29 07:45:41;;;;;;;4.90;2.38;;;19.30;58.00;;;;;;5048514;28;20077;-70
2022/07/29 07:48:09;;;;;;;6.35;2.42;;;19.30;57.80;;;;;;5056400;28;20462;-70
2022/07/29 07:50:37;;;;;;;8.95;3.08;;;19.50;57.70;;;;;;5043024;28;20510;-70
2022/07/29 07:53:03;;;;;;;9.35;3.00;;;19.50;57.70;;;;;;5031410;28;20045;-70
2022/07/29 07:55:31;;;;;;;6.25;2.80;;;19.60;57.80;;;;;;5041704;28;20106;-70
2022/07/29 07:57:58;;;;;;;6.78;2.70;;;19.70;57.70;;;;;;5038481;28;20140;-70
2022/07/29 08:00:25;;;;;;;8.25;2.67;;;19.80;57.50;;;;;;5024132;28;20049;-70
2022/07/29 08:02:52;;;;;;;7.47;2.80;;;19.90;57.10;;;;;;5045667;28;20054;-70
2022/07/29 08:05:19;;;;;;;6.78;2.83;;;20.10;56.90;;;;;;5029855;28;20049;-70
2022/07/29 08:07:49;;;;;;;8.82;2.78;;;20.20;56.80;;;;;;5002348;28;20056;-70
2022/07/29 08:13:05;;;;;;;6.47;2.67;;;20.40;56.10;;;;;;5055451;28;20056;-70
2022/07/29 08:15:32;;;;;;;12.85;2.97;;;20.40;56.00;;;;;;5027619;28;20139;-71
2022/07/29 08:17:59;;;;;;;6.05;2.35;;;20.50;56.10;;;;;;5045505;28;20049;-71
2022/07/29 08:20:26;;;;;;;7.50;2.60;;;20.50;56.10;;;;;;5058054;28;20115;-72
2022/07/29 08:22:53;;;;;;;11.38;2.65;;;20.50;56.00;;;;;;5034286;28;20076;-71
2022/07/29 08:25:20;;;;;;;8.05;3.10;;;20.60;55.60;;;;;;5026121;28;20065;-71
2022/07/29 08:27:49;;;;;;;9.85;3.03;;;20.60;55.60;;;;;;5029229;28;20569;-70
2022/07/29 08:30:16;;;;;;;6.13;2.58;;;20.60;55.20;;;;;;5038091;28;20151;-71
2022/07/29 08:32:42;;;;;;;11.10;2.58;;;20.60;55.30;;;;;;5043295;28;20052;-70
2022/07/29 08:35:09;;;;;;;10.80;3.00;;;20.70;55.20;;;;;;5014479;28;20044;-69
2022/07/29 08:37:35;;;;;;;7.30;2.58;;;20.70;55.10;;;;;;5029865;28;20053;-70
2022/07/29 08:40:00;;;;;;;12.05;2.60;;;20.80;55.00;;;;;;5034546;28;20049;-69
2022/07/29 08:42:27;;;;;;;14.40;2.95;;;20.80;54.90;;;;;;5034108;28;20053;-71
2022/07/29 08:44:54;;;;;;;11.10;2.85;;;20.80;54.60;;;;;;5012167;28;20092;-69
2022/07/29 08:47:21;;;;;;;6.70;2.75;;;20.90;54.70;;;;;;5031301;28;20128;-70
2022/07/29 08:49:48;;;;;;;9.63;2.65;;;21.00;55.00;;;;;;5028713;28;20034;-72
2022/07/29 08:52:14;;;;;;;12.80;3.55;;;21.30;54.20;;;;;;5040584;28;20079;-70
2022/07/29 08:54:39;;;;;;;6.15;3.08;;;21.40;54.20;;;;;;5012929;28;20474;-70
2022/07/29 08:57:05;;;;;;;7.75;2.95;;;21.70;53.40;;;;;;5029397;28;20426;-70
2022/07/29 08:59:31;;;;;;;7.55;3.00;;;21.90;52.40;;;;;;5051952;28;20053;-70
2022/07/29 09:01:59;;;;;;;16.63;3.25;;;22.00;52.40;;;;;;5012745;28;20049;-70
2022/07/29 09:04:25;;;;;;;8.68;2.47;;;22.00;52.20;;;;;;5029319;28;20049;-71
2022/07/29 09:06:51;;;;;;;8.32;2.50;;;22.00;52.10;;;;;;5012239;28;20142;-71
2022/07/29 09:09:17;;;;;;;7.75;2.60;;;22.00;52.00;;;;;;5012090;28;20041;-71
2022/07/29 09:11:43;;;;;;;7.53;2.80;;;22.10;52.00;;;;;;5025732;28;20041;-71
2022/07/29 09:14:12;;;;;;;7.00;2.40;;;22.10;52.00;;;;;;5028854;28;20502;-72
2022/07/29 09:16:48;;;;;;;8.73;2.75;;;22.20;51.90;;;;;;4980052;28;20075;-72
2022/07/29 09:19:22;;;;;;;7.78;2.58;;;22.20;52.00;;;;;;4995949;28;20045;-70
2022/07/29 09:21:57;;;;;;;8.07;2.97;;;22.30;52.10;;;;;;5012838;28;20045;-72
2022/07/29 09:24:23;;;;;;;10.40;2.80;;;22.40;51.50;;;;;;5012936;28;20134;-71
2022/07/29 09:26:50;;;;;;;6.00;2.50;;;22.40;52.00;;;;;;5026815;28;20053;-71
2022/07/29 09:29:20;;;;;;;7.43;2.60;;;22.40;51.50;;;;;;5041889;28;20045;-70
2022/07/29 09:31:52;;;;;;;11.63;4.22;;;22.40;51.40;;;;;;5048486;28;20072;-71
2022/07/29 09:34:23;;;;;;;6.40;2.60;;;22.40;51.60;;;;;;5023099;28;20399;-70
2022/07/29 09:36:51;;;;;;;5.88;2.55;;;22.40;51.40;;;;;;5048902;28;20053;-71
2022/07/29 09:39:27;;;;;;;6.38;2.88;;;22.40;51.20;;;;;;5028342;28;20045;-70
2022/07/29 09:41:57;;;;;;;6.60;2.47;;;22.40;51.70;;;;;;5028601;28;20060;-69
2022/07/29 09:44:26;;;;;;;9.23;2.67;;;22.50;51.30;;;;;;5027225;28;20065;-70
2022/07/29 09:47:12;;;;;;;10.75;2.70;;;22.60;51.60;;;;;;5014604;28;20079;-69
2022/07/29 09:49:57;;;;;;;7.43;2.65;;;22.80;51.30;;;;;;5042732;28;20040;-70
2022/07/29 09:52:23;;;;;;;10.85;2.72;;;22.90;50.80;;;;;;5040841;28;20041;-70
2022/07/29 09:54:50;;;;;;;10.50;2.58;;;23.10;50.70;;;;;;5026951;28;20048;-70
2022/07/29 09:57:42;;;;;;;8.07;2.17;;;23.20;50.00;;;;;;5028525;28;20073;-69
2022/07/29 10:00:09;;;;;;;8.75;2.85;;;23.40;50.00;;;;;;5043946;28;20156;-70
2022/07/29 10:02:36;;;;;;;7.60;2.50;;;23.60;50.10;;;;;;5021421;28;20051;-69
2022/07/29 10:05:04;;;;;;;9.07;3.08;;;23.70;49.40;;;;;;5001003;28;20050;-70
2022/07/29 10:07:51;;;;;;;8.38;2.25;;;23.80;49.10;;;;;;5031642;28;20056;-70
2022/07/29 10:10:25;;;;;;;8.93;2.58;;;23.90;49.30;;;;;;5048859;28;20040;-70
2022/07/29 10:13:02;;;;;;;8.40;2.50;;;24.00;49.10;;;;;;5011375;28;20045;-71
2022/07/29 10:15:29;;;;;;;7.60;2.20;;;24.20;49.00;;;;;;5012079;28;20041;-70
2022/07/29 10:17:55;;;;;;;6.65;2.50;;;24.20;48.00;;;;;;5031171;28;20135;-70
2022/07/29 10:20:22;;;;;;;8.05;3.10;;;24.10;47.90;;;;;;5055885;28;20052;-70
2022/07/29 10:22:48;;;;;;;8.13;2.53;;;24.10;48.40;;;;;;5028011;28;20060;-70
2022/07/29 10:25:15;;;;;;;7.55;2.42;;;24.10;48.30;;;;;;5027944;28;20379;-70
2022/07/29 10:27:40;;;;;;;6.25;2.40;;;24.10;48.70;;;;;;5024442;28;20045;-69
2022/07/29 10:30:07;;;;;;;9.55;2.63;;;24.00;48.10;;;;;;5011847;28;20051;-70
2022/07/29 10:32:35;;;;;;;12.05;3.10;;;24.00;48.10;;;;;;5027384;28;20443;-70
2022/07/29 10:35:16;;;;;;;10.93;2.53;;;23.90;48.00;;;;;;5033527;28;20387;-69
2022/07/29 10:38:00;;;;;;;11.63;2.75;;;23.90;48.20;;;;;;5047227;28;20049;-70
2022/07/29 10:43:35;;;;;;;5.30;2.53;;;23.80;48.80;;;;;;5031516;28;20148;-70
2022/07/29 10:46:02;;;;;;;5.15;2.40;;;23.80;48.60;;;;;;5037189;28;20084;-70
2022/07/29 10:48:27;;;;;;;5.05;2.35;;;23.80;48.60;;;;;;5035847;28;20045;-69
2022/07/29 10:51:02;;;;;;;7.55;2.40;;;23.80;48.50;;;;;;5013713;28;20355;-70
2022/07/29 10:53:47;;;;;;;7.88;2.42;;;23.70;48.20;;;;;;5044851;28;20451;-70
2022/07/29 10:56:26;;;;;;;5.60;2.40;;;23.70;48.00;;;;;;5045761;28;20041;-69
2022/07/29 10:59:19;;;;;;;6.25;2.92;;;23.70;48.10;;;;;;5046308;28;20052;-70
2022/07/29 11:01:46;;;;;;;6.60;2.40;;;23.70;48.50;;;;;;5049457;28;20072;-72
2022/07/29 11:04:12;;;;;;;5.57;2.42;;;23.70;48.50;;;;;;5014032;28;20126;-70
2022/07/29 11:07:02;;;;;;;9.15;2.63;;;23.70;48.30;;;;;;5008153;28;20095;-69
2022/07/29 11:09:30;;;;;;;6.82;2.70;;;23.70;48.20;;;;;;5044090;28;20068;-71
2022/07/29 11:11:56;;;;;;;7.63;2.53;;;23.70;48.30;;;;;;5045930;28;20041;-70
2022/07/29 11:14:55;;;;;;;6.57;2.42;;;23.70;48.70;;;;;;5037874;28;20127;-70
2022/07/29 11:17:21;;;;;;;7.20;2.55;;;23.70;48.30;;;;;;5032362;28;20042;-70
2022/07/29 11:19:46;;;;;;;7.07;2.63;;;23.70;48.00;;;;;;5063002;28;20048;-70
2022/07/29 11:22:30;;;;;;;8.32;2.50;;;23.70;48.00;;;;;;5048679;28;20132;-70
2022/07/29 11:25:15;;;;;;;7.07;2.30;;;23.70;47.80;;;;;;5030834;28;20107;-70
2022/07/29 11:27:41;;;;;;;4.90;2.53;;;23.70;48.30;;;;;;5030409;28;20248;-69
2022/07/29 11:30:11;;;;;;;6.40;2.20;;;23.70;48.70;;;;;;5023053;28;20471;-70
2022/07/29 11:32:38;;;;;;;9.25;2.75;;;23.70;48.30;;;;;;5040942;28;20084;-70
2022/07/29 11:35:22;;;;;;;10.65;2.80;;;23.70;47.60;;;;;;5024118;28;20060;-70
2022/07/29 11:38:28;;;;;;;7.00;2.63;;;23.70;47.50;;;;;;5047159;28;20103;-70
2022/07/29 11:41:19;;;;;;;5.10;2.42;;;23.70;48.10;;;;;;5057598;28;20083;-71
2022/07/29 11:44:09;;;;;;;5.78;2.33;;;23.70;47.70;;;;;;5046097;28;20578;-70
2022/07/29 11:46:50;;;;;;;5.97;2.47;;;23.70;47.20;;;;;;5048459;28;20052;-71
2022/07/29 11:49:25;;;;;;;9.13;2.60;;;23.70;47.50;;;;;;5046323;28;20124;-70
2022/07/29 11:51:56;;;;;;;6.47;2.85;;;23.70;46.90;;;;;;5046636;28;20052;-70
2022/07/29 11:54:26;;;;;;;6.18;2.55;;;23.70;47.00;;;;;;5046210;28;20072;-70
2022/07/29 11:56:53;;;;;;;6.88;2.33;;;23.70;47.00;;;;;;5043191;28;20049;-70
2022/07/29 11:59:20;;;;;;;5.38;2.33;;;23.70;47.20;;;;;;5045874;28;20052;-69
2022/07/29 12:01:57;;;;;;;6.10;2.55;;;23.70;46.60;;;;;;5029909;28;20057;-70
2022/07/29 12:04:26;;;;;;;8.63;2.20;;;23.70;46.80;;;;;;5042093;28;20053;-70
2022/07/29 12:06:53;;;;;;;11.18;2.58;;;23.70;46.90;;;;;;5036196;28;20136;-71
2022/07/29 12:09:21;;;;;;;8.80;2.60;;;23.80;46.10;;;;;;5029897;28;20037;-70
2022/07/29 12:11:48;;;;;;;5.68;2.17;;;23.80;45.70;;;;;;5041903;28;20155;-70
2022/07/29 12:14:30;;;;;;;6.50;2.72;;;23.80;46.40;;;;;;5048701;28;20048;-69
2022/07/29 12:16:58;;;;;;;8.05;2.45;;;23.80;46.20;;;;;;5045480;28;20049;-71
2022/07/29 12:19:25;;;;;;;5.70;2.53;;;23.80;46.50;;;;;;5040319;28;20052;-70
2022/07/29 12:21:54;;;;;;;6.60;2.85;;;23.80;46.40;;;;;;5032986;28;20056;-69
2022/07/29 12:24:20;;;;;;;6.90;2.88;;;23.80;44.90;;;;;;5049511;28;20060;-70
2022/07/29 12:26:55;;;;;;;7.88;2.95;;;23.80;45.20;;;;;;5047986;28;20072;-71
2022/07/29 12:29:22;;;;;;;4.95;2.55;;;23.80;43.60;;;;;;5047214;28;20040;-70
2022/07/29 12:31:53;;;;;;;6.75;2.70;;;23.80;43.00;;;;;;5045241;28;20037;-70
2022/07/29 12:34:23;;;;;;;5.78;2.50;;;23.90;41.50;;;;;;5037688;28;20391;-70
2022/07/29 12:36:50;;;;;;;5.22;2.55;;;23.90;42.50;;;;;;5043487;28;20057;-70
2022/07/29 12:39:17;;;;;;;7.93;2.60;;;23.90;42.60;;;;;;5043176;28;20045;-70
2022/07/29 12:41:44;;;;;;;10.85;2.83;;;23.90;42.00;;;;;;5039712;28;20045;-70
2022/07/29 12:44:11;;;;;;;4.47;2.55;;;23.90;41.80;;;;;;5042896;28;20793;-69
2022/07/29 12:46:38;;;;;;;5.45;2.30;;;24.00;41.70;;;;;;5046914;28;20067;-70
2022/07/29 12:49:05;;;;;;;10.02;2.80;;;24.00;41.20;;;;;;5028279;28;20137;-70
2022/07/29 12:51:37;;;;;;;4.35;2.45;;;24.00;41.50;;;;;;5045977;28;20045;-69
2022/07/29 12:54:13;;;;;;;7.55;2.80;;;24.10;41.70;;;;;;5044113;28;20487;-69
2022/07/29 12:56:40;;;;;;;7.70;2.80;;;24.10;42.40;;;;;;5016954;28;20060;-69
2022/07/29 12:59:21;;;;;;;6.95;2.92;;;24.10;41.40;;;;;;5037670;28;20115;-74
2022/07/29 13:01:50;;;;;;;5.88;2.80;;;24.10;41.40;;;;;;5012595;28;20044;-69
2022/07/29 13:04:32;;;;;;;6.88;2.75;;;24.20;40.20;;;;;;5024238;28;20049;-70
2022/07/29 13:07:08;;;;;;;7.78;2.58;;;24.20;41.70;;;;;;5029784;28;20041;-70
2022/07/29 13:09:42;;;;;;;6.97;2.85;;;24.20;41.20;;;;;;5046331;28;20045;-69